Time;durP1;ratioP1;P1;durP2;ratioP2;P2;SDS_P1;SDS_P2;PMS_P1;PMS_P2;Temp;Humidity;BMP_temperature;BMP_pressure;BME280_temperature;BME280_humidity;BME280_pressure;Samples;Min_cycle;Max_cycle;Signal;HPM_P1;HPM_P2
2023/10/18 00:02:16;;;;;;;16.63;13.95;;;;;;;;;;5043095;28;20143;-73
2023/10/18 00:04:45;;;;;;;18.85;15.48;;;;;;;;;;5049830;28;20044;-71
2023/10/18 00:07:13;;;;;;;17.70;13.13;;;;;;;;;;5053899;28;20105;-72
2023/10/18 00:09:42;;;;;;;19.35;14.70;;;;;;;;;;5056861;28;20032;-72
2023/10/18 00:12:08;;;;;;;21.95;15.95;;;;;;;;;;5063584;28;20093;-75
2023/10/18 00:14:34;;;;;;;21.25;16.55;;;;;;;;;;5051651;28;20126;-72
2023/10/18 00:17:00;;;;;;;21.90;16.50;;;;;;;;;;5063675;28;20319;-73
2023/10/18 00:19:26;;;;;;;24.73;17.98;;;;;;;;;;5056271;28;20036;-73
2023/10/18 00:21:55;;;;;;;23.23;17.50;;;;;;;;;;5045590;28;20070;-73
2023/10/18 00:24:21;;;;;;;24.63;18.85;;;;;;;;;;5061012;28;20325;-72
2023/10/18 00:26:46;;;;;;;24.75;17.67;;;;;;;;;;5056846;28;20717;-72
2023/10/18 00:29:12;;;;;;;30.42;17.48;;;;;;;;;;5054963;28;20036;-73
2023/10/18 00:31:38;;;;;;;23.13;16.35;;;;;;;;;;5059483;28;20037;-73
2023/10/18 00:34:06;;;;;;;23.15;16.95;;;;;;;;;;5042357;28;20064;-74
2023/10/18 00:36:33;;;;;;;23.90;18.35;;;;;;;;;;5026868;28;20032;-72
2023/10/18 00:38:59;;;;;;;25.60;17.98;;;;;;;;;;5054283;28;20032;-75
2023/10/18 00:41:43;;;;;;;22.40;18.15;;;;;;;;;;5040811;28;20032;-72
2023/10/18 00:44:12;;;;;;;24.90;17.98;;;;;;;;;;5061417;28;20048;-75
2023/10/18 00:46:39;;;;;;;27.98;16.67;;;;;;;;;;5045929;28;20059;-72
2023/10/18 00:49:13;;;;;;;22.05;17.02;;;;;;;;;;5033243;28;20410;-74
2023/10/18 00:51:41;;;;;;;21.25;17.30;;;;;;;;;;5043005;28;20060;-74
2023/10/18 00:54:13;;;;;;;21.63;16.67;;;;;;;;;;5057817;28;20064;-75
2023/10/18 00:56:50;;;;;;;19.55;15.95;;;;;;;;;;5037412;28;20102;-72
2023/10/18 00:59:21;;;;;;;18.80;15.82;;;;;;;;;;5050488;28;20091;-72
2023/10/18 01:02:11;;;;;;;20.45;16.33;;;;;;;;;;5057124;28;20039;-73
2023/10/18 01:04:37;;;;;;;22.58;17.08;;;;;;;;;;5042104;28;20115;-72
2023/10/18 01:07:15;;;;;;;25.25;17.23;;;;;;;;;;5059197;28;20047;-73
2023/10/18 01:09:49;;;;;;;25.52;17.80;;;;;;;;;;5064115;28;20098;-73
2023/10/18 01:12:19;;;;;;;25.38;16.88;;;;;;;;;;5061448;28;20410;-73
2023/10/18 01:14:45;;;;;;;26.45;17.52;;;;;;;;;;5030260;28;20036;-73
2023/10/18 01:17:15;;;;;;;23.65;17.98;;;;;;;;;;5046597;28;20040;-73
2023/10/18 01:19:43;;;;;;;26.27;17.40;;;;;;;;;;5062388;28;20028;-73
2023/10/18 01:22:09;;;;;;;30.33;18.67;;;;;;;;;;5047450;28;20032;-73
2023/10/18 01:24:35;;;;;;;23.92;16.35;;;;;;;;;;5065036;28;20409;-73
2023/10/18 01:27:05;;;;;;;21.42;16.40;;;;;;;;;;5062773;28;20040;-73
2023/10/18 01:29:34;;;;;;;27.55;17.38;;;;;;;;;;5035565;28;20045;-73
2023/10/18 01:31:59;;;;;;;22.38;17.58;;;;;;;;;;5027998;28;20041;-74
2023/10/18 01:34:26;;;;;;;23.65;18.73;;;;;;;;;;5060585;28;20119;-72
2023/10/18 01:36:52;;;;;;;26.85;18.23;;;;;;;;;;5042625;28;20056;-74
2023/10/18 01:39:20;;;;;;;26.75;18.48;;;;;;;;;;5046510;28;20032;-73
2023/10/18 01:41:48;;;;;;;26.92;17.83;;;;;;;;;;5064845;28;20036;-75
2023/10/18 01:44:18;;;;;;;25.30;16.95;;;;;;;;;;5059374;28;20036;-75
2023/10/18 01:46:52;;;;;;;28.27;17.42;;;;;;;;;;5059700;28;20107;-73
2023/10/18 01:49:21;;;;;;;24.85;18.88;;;;;;;;;;5047026;28;20125;-75
2023/10/18 01:51:51;;;;;;;26.15;18.50;;;;;;;;;;5060893;28;20115;-73
2023/10/18 01:54:25;;;;;;;25.33;18.20;;;;;;;;;;5056394;28;20037;-73
2023/10/18 01:56:57;;;;;;;23.52;16.73;;;;;;;;;;5043121;28;20036;-76
2023/10/18 01:59:27;;;;;;;23.98;16.85;;;;;;;;;;5041030;28;20099;-73
2023/10/18 02:01:55;;;;;;;25.48;17.65;;;;;;;;;;5046295;28;20032;-75
2023/10/18 02:04:25;;;;;;;26.48;17.80;;;;;;;;;;5026860;28;20528;-74
2023/10/18 02:06:57;;;;;;;23.13;18.13;;;;;;;;;;5041757;28;20040;-74
2023/10/18 02:09:47;;;;;;;24.70;18.33;;;;;;;;;;5066080;28;20425;-74
2023/10/18 02:12:18;;;;;;;25.65;18.67;;;;;;;;;;5059998;28;20494;-73
2023/10/18 02:14:45;;;;;;;24.48;17.50;;;;;;;;;;5027823;28;20114;-73
2023/10/18 02:17:10;;;;;;;25.35;18.67;;;;;;;;;;5065115;28;20724;-74
2023/10/18 02:19:37;;;;;;;23.80;17.25;;;;;;;;;;5046657;28;20123;-74
2023/10/18 02:22:07;;;;;;;22.92;17.58;;;;;;;;;;5042789;28;20111;-71
2023/10/18 02:24:34;;;;;;;26.77;17.80;;;;;;;;;;5041861;28;20187;-74
2023/10/18 02:27:01;;;;;;;25.27;17.67;;;;;;;;;;5069602;28;20040;-74
2023/10/18 02:29:28;;;;;;;27.67;17.58;;;;;;;;;;5062347;28;20037;-73
2023/10/18 02:31:57;;;;;;;25.73;19.05;;;;;;;;;;5063309;28;20171;-74
2023/10/18 02:34:26;;;;;;;25.63;17.70;;;;;;;;;;5037652;28;20032;-74
2023/10/18 02:36:53;;;;;;;28.88;20.05;;;;;;;;;;5044427;28;20595;-74
2023/10/18 02:39:27;;;;;;;31.30;19.92;;;;;;;;;;5042531;28;20028;-73
2023/10/18 02:41:57;;;;;;;32.15;20.45;;;;;;;;;;5025453;28;20032;-74
2023/10/18 02:44:23;;;;;;;27.40;18.92;;;;;;;;;;5031849;28;20032;-74
2023/10/18 02:46:55;;;;;;;29.00;19.10;;;;;;;;;;5062798;28;20110;-74
2023/10/18 02:49:28;;;;;;;29.90;20.55;;;;;;;;;;5056858;28;20044;-74
2023/10/18 02:51:56;;;;;;;28.02;18.60;;;;;;;;;;5059410;28;20530;-74
2023/10/18 02:54:24;;;;;;;30.48;20.45;;;;;;;;;;5060118;28;20036;-74
2023/10/18 02:56:50;;;;;;;30.42;19.30;;;;;;;;;;5062177;28;20081;-74
2023/10/18 02:59:21;;;;;;;27.25;20.25;;;;;;;;;;5056869;28;20040;-74
2023/10/18 03:01:49;;;;;;;28.38;20.08;;;;;;;;;;5067096;28;20104;-74
2023/10/18 03:04:15;;;;;;;26.77;19.67;;;;;;;;;;5050180;28;20033;-74
2023/10/18 03:06:50;;;;;;;27.33;19.42;;;;;;;;;;5046056;28;20040;-75
2023/10/18 03:12:02;;;;;;;33.58;19.90;;;;;;;;;;5066214;28;20032;-74
2023/10/18 03:19:50;;;;;;;31.45;19.80;;;;;;;;;;5058704;28;20036;-74
2023/10/18 03:22:20;;;;;;;35.85;22.13;;;;;;;;;;5045180;28;20032;-74
2023/10/18 03:24:47;;;;;;;27.58;19.65;;;;;;;;;;5056744;28;20510;-74
2023/10/18 03:27:14;;;;;;;27.35;19.13;;;;;;;;;;5037665;28;20033;-74
2023/10/18 03:29:43;;;;;;;52.70;34.03;;;;;;;;;;5057988;28;20041;-74
2023/10/18 03:32:14;;;;;;;;;;;;;;;;;;5060160;28;20043;-73
2023/10/18 03:34:43;;;;;;;28.73;20.38;;;;;;;;;;5055065;28;19916;-74
2023/10/18 03:37:18;;;;;;;28.85;18.73;;;;;;;;;;5058323;28;20037;-74
2023/10/18 03:39:49;;;;;;;29.83;20.17;;;;;;;;;;5043772;28;20127;-74
2023/10/18 03:42:30;;;;;;;25.83;18.05;;;;;;;;;;5056166;28;20047;-74
2023/10/18 03:45:13;;;;;;;28.08;19.67;;;;;;;;;;5044789;28;20035;-73
2023/10/18 03:47:41;;;;;;;32.33;21.77;;;;;;;;;;5050165;28;20128;-74
2023/10/18 03:50:15;;;;;;;26.13;19.17;;;;;;;;;;5057202;28;20127;-73
2023/10/18 03:52:41;;;;;;;26.60;18.83;;;;;;;;;;5058151;28;20106;-74
2023/10/18 03:57:38;;;;;;;25.17;18.17;;;;;;;;;;5050180;28;20040;-73
2023/10/18 04:02:56;;;;;;;24.00;17.38;;;;;;;;;;5055517;28;20052;-74
2023/10/18 04:05:35;;;;;;;24.30;16.67;;;;;;;;;;5055895;28;20855;-73
2023/10/18 04:08:02;;;;;;;25.25;18.33;;;;;;;;;;5058154;28;20486;-74
2023/10/18 04:10:31;;;;;;;28.40;19.08;;;;;;;;;;5053298;28;20130;-73
2023/10/18 04:12:57;;;;;;;23.00;17.42;;;;;;;;;;5043148;28;20036;-73
2023/10/18 04:15:29;;;;;;;26.42;17.38;;;;;;;;;;5054421;28;20467;-73
2023/10/18 04:20:33;;;;;;;24.77;19.02;;;;;;;;;;5057530;28;20096;-73
2023/10/18 04:23:00;;;;;;;20.50;16.63;;;;;;;;;;5055471;28;20379;-73
2023/10/18 04:25:26;;;;;;;28.98;17.13;;;;;;;;;;5057341;28;20409;-76
2023/10/18 04:27:58;;;;;;;26.65;18.83;;;;;;;;;;5043002;28;20158;-75
2023/10/18 04:30:25;;;;;;;30.45;19.50;;;;;;;;;;5056844;28;20036;-73
2023/10/18 04:32:59;;;;;;;19.42;15.82;;;;;;;;;;5059230;28;20529;-76
2023/10/18 04:35:44;;;;;;;19.13;13.52;;;;;;;;;;5053974;28;20036;-73
2023/10/18 04:38:29;;;;;;;24.33;16.35;;;;;;;;;;5041710;28;20033;-73
2023/10/18 04:41:06;;;;;;;24.02;16.80;;;;;;;;;;5054721;28;20032;-74
2023/10/18 04:43:33;;;;;;;27.95;18.65;;;;;;;;;;5038305;28;20120;-73
2023/10/18 04:46:04;;;;;;;23.50;17.80;;;;;;;;;;5055348;28;20032;-73
2023/10/18 04:51:48;;;;;;;28.38;18.92;;;;;;;;;;5018238;28;20075;-73
2023/10/18 04:54:16;;;;;;;25.08;18.05;;;;;;;;;;5054778;28;20036;-73
2023/10/18 04:56:45;;;;;;;;;;;;;;;;;;5049155;28;20045;-73
2023/10/18 05:04:24;;;;;;;;;;;;;;;;;;5066563;28;20039;-73
2023/10/18 05:06:55;;;;;;;27.83;18.90;;;;;;;;;;5059202;28;19991;-73
2023/10/18 05:17:33;;;;;;;27.55;20.13;;;;;;;;;;5056806;28;20036;-74
2023/10/18 05:20:14;;;;;;;28.92;18.40;;;;;;;;;;5058153;28;20112;-73
2023/10/18 05:22:41;;;;;;;27.23;18.67;;;;;;;;;;5047306;28;20304;-74
2023/10/18 05:27:38;;;;;;;25.08;18.38;;;;;;;;;;5054807;28;20037;-74
2023/10/18 05:30:14;;;;;;;31.33;19.25;;;;;;;;;;5059069;28;20032;-74
2023/10/18 05:35:27;;;;;;;29.45;20.75;;;;;;;;;;5064512;28;20056;-75
2023/10/18 05:38:06;;;;;;;32.05;20.10;;;;;;;;;;5058114;28;20095;-77
2023/10/18 05:43:13;;;;;;;33.08;21.55;;;;;;;;;;5058219;28;20143;-74
2023/10/18 05:45:42;;;;;;;33.53;22.50;;;;;;;;;;5041593;28;20047;-74
2023/10/18 05:48:17;;;;;;;31.48;21.20;;;;;;;;;;5037806;28;20040;-76
2023/10/18 05:50:55;;;;;;;36.00;21.98;;;;;;;;;;5061416;28;20134;-75
2023/10/18 05:53:24;;;;;;;25.70;19.88;;;;;;;;;;5061698;28;20129;-75
2023/10/18 05:55:53;;;;;;;33.13;21.27;;;;;;;;;;5045141;28;20083;-75
2023/10/18 05:58:25;;;;;;;36.65;21.60;;;;;;;;;;5044751;28;20044;-75
2023/10/18 06:00:55;;;;;;;36.97;22.63;;;;;;;;;;5057642;28;20045;-75
2023/10/18 06:03:27;;;;;;;29.73;20.88;;;;;;;;;;5058620;28;20059;-75
2023/10/18 06:05:57;;;;;;;46.55;20.33;;;;;;;;;;5065436;28;20040;-75
2023/10/18 06:08:23;;;;;;;28.60;19.90;;;;;;;;;;5064961;28;20024;-74
2023/10/18 06:11:07;;;;;;;29.48;20.55;;;;;;;;;;5065940;28;20040;-75
2023/10/18 06:13:35;;;;;;;24.20;18.77;;;;;;;;;;5046195;28;20032;-75
2023/10/18 06:16:18;;;;;;;28.33;19.55;;;;;;;;;;5058165;28;20409;-75
2023/10/18 06:18:48;;;;;;;26.92;19.20;;;;;;;;;;5062664;28;20052;-75
2023/10/18 06:21:20;;;;;;;28.58;19.85;;;;;;;;;;5045178;28;20108;-75
2023/10/18 06:23:54;;;;;;;26.90;18.92;;;;;;;;;;5064249;28;20041;-74
2023/10/18 06:26:33;;;;;;;28.83;19.98;;;;;;;;;;5061516;28;20084;-74
2023/10/18 06:29:08;;;;;;;26.35;19.20;;;;;;;;;;5046168;28;20517;-75
2023/10/18 06:31:46;;;;;;;28.90;18.67;;;;;;;;;;5056697;28;20063;-75
2023/10/18 06:34:17;;;;;;;25.38;18.90;;;;;;;;;;5062315;28;20108;-74
2023/10/18 06:36:52;;;;;;;31.67;20.05;;;;;;;;;;5045810;28;20130;-73
2023/10/18 06:39:25;;;;;;;32.22;21.33;;;;;;;;;;5067276;28;20028;-75
2023/10/18 06:41:53;;;;;;;31.98;21.00;;;;;;;;;;5067165;28;20024;-75
2023/10/18 06:44:18;;;;;;;33.03;21.83;;;;;;;;;;5066236;28;20060;-74
2023/10/18 06:46:47;;;;;;;32.70;20.83;;;;;;;;;;5065507;28;20057;-75
2023/10/18 06:49:13;;;;;;;30.83;20.63;;;;;;;;;;5069675;28;20075;-75
2023/10/18 06:51:43;;;;;;;38.30;21.17;;;;;;;;;;5064945;28;20418;-75
2023/10/18 06:54:14;;;;;;;26.92;19.02;;;;;;;;;;5066100;28;20036;-75
2023/10/18 06:56:46;;;;;;;29.38;21.98;;;;;;;;;;5063912;28;20036;-76
2023/10/18 06:59:13;;;;;;;30.75;21.70;;;;;;;;;;5064670;28;20087;-74
2023/10/18 07:01:41;;;;;;;25.13;19.40;;;;;;;;;;5058369;28;20036;-76
2023/10/18 07:04:19;;;;;;;22.92;17.92;;;;;;;;;;5064642;28;20032;-76
2023/10/18 07:06:45;;;;;;;29.70;21.33;;;;;;;;;;5059954;28;20040;-75
2023/10/18 07:09:25;;;;;;;31.00;22.13;;;;;;;;;;5064612;28;20067;-75
2023/10/18 07:11:53;;;;;;;27.85;18.80;;;;;;;;;;5062795;28;20041;-75
2023/10/18 07:14:20;;;;;;;27.10;19.38;;;;;;;;;;5063070;28;20041;-75
2023/10/18 07:16:48;;;;;;;22.77;17.95;;;;;;;;;;5070324;28;20047;-75
2023/10/18 07:19:25;;;;;;;26.83;18.45;;;;;;;;;;5056805;28;20061;-75
2023/10/18 07:21:51;;;;;;;28.45;17.77;;;;;;;;;;5061198;28;20036;-76
2023/10/18 07:24:17;;;;;;;27.70;22.02;;;;;;;;;;5063801;28;20036;-74
2023/10/18 07:26:46;;;;;;;28.48;18.45;;;;;;;;;;5062769;28;20039;-75
2023/10/18 07:29:13;;;;;;;24.08;18.40;;;;;;;;;;5070116;28;20534;-75
2023/10/18 07:31:46;;;;;;;21.42;16.88;;;;;;;;;;5065483;28;20065;-76
2023/10/18 07:34:25;;;;;;;23.67;18.17;;;;;;;;;;5039844;28;20083;-75
2023/10/18 07:36:54;;;;;;;;;;;;;;;;;;5061589;28;20033;-76
2023/10/18 07:39:24;;;;;;;22.23;15.82;;;;;;;;;;5062769;28;20310;-75
2023/10/18 07:41:53;;;;;;;19.92;15.98;;;;;;;;;;5062760;28;20033;-75
2023/10/18 07:44:19;;;;;;;;;;;;;;;;;;5061710;28;20033;-75
2023/10/18 07:46:45;;;;;;;23.50;17.35;;;;;;;;;;5064257;28;19920;-75
2023/10/18 07:49:13;;;;;;;22.33;15.80;;;;;;;;;;5062501;28;20028;-74
2023/10/18 07:51:48;;;;;;;21.42;17.75;;;;;;;;;;5060494;28;20040;-75
2023/10/18 07:54:15;;;;;;;20.00;15.00;;;;;;;;;;5065119;28;20043;-75
2023/10/18 07:56:51;;;;;;;21.50;16.13;;;;;;;;;;5042933;28;20518;-75
2023/10/18 07:59:27;;;;;;;19.83;14.52;;;;;;;;;;5058964;28;20078;-76
2023/10/18 08:04:42;;;;;;;23.42;16.63;;;;;;;;;;5067665;28;20062;-75
2023/10/18 08:07:15;;;;;;;23.23;17.58;;;;;;;;;;5061040;28;20036;-74
2023/10/18 08:09:42;;;;;;;20.58;14.40;;;;;;;;;;5063232;28;20038;-75
2023/10/18 08:12:28;;;;;;;19.77;16.02;;;;;;;;;;5059174;28;20032;-75
2023/10/18 08:14:54;;;;;;;26.48;17.67;;;;;;;;;;5062192;28;20469;-74
2023/10/18 08:22:50;;;;;;;19.50;16.20;;;;;;;;;;5018794;28;20033;-75
2023/10/18 08:25:31;;;;;;;17.77;15.88;;;;;;;;;;5018243;28;20049;-75
2023/10/18 08:27:58;;;;;;;18.60;16.08;;;;;;;;;;5016792;28;20038;-74
2023/10/18 08:32:52;;;;;;;14.93;13.40;;;;;;;;;;5012294;28;20041;-75
2023/10/18 08:35:20;;;;;;;16.88;14.82;;;;;;;;;;5018341;28;20052;-74
2023/10/18 08:37:46;;;;;;;16.58;14.70;;;;;;;;;;5018658;28;20533;-75
2023/10/18 08:40:27;;;;;;;17.02;15.35;;;;;;;;;;5017996;28;20669;-74
2023/10/18 08:43:08;;;;;;;18.58;15.43;;;;;;;;;;5016529;28;20064;-76
2023/10/18 08:45:36;;;;;;;18.25;15.15;;;;;;;;;;5010791;28;20528;-74
2023/10/18 08:48:28;;;;;;;20.25;15.13;;;;;;;;;;5016828;28;20037;-75
2023/10/18 08:50:51;;;;;;;17.92;14.30;;;;;;;;;;5013447;28;20054;-75
2023/10/18 08:53:22;;;;;;;20.33;15.13;;;;;;;;;;5015250;28;20041;-75
2023/10/18 08:55:51;;;;;;;20.33;15.98;;;;;;;;;;5019474;28;20503;-74
2023/10/18 08:58:19;;;;;;;18.33;16.02;;;;;;;;;;5057833;28;20036;-75
2023/10/18 09:03:14;;;;;;;14.68;13.23;;;;;;;;;;5056461;28;20043;-75
2023/10/18 09:05:41;;;;;;;17.90;14.15;;;;;;;;;;5053860;28;20059;-73
2023/10/18 09:08:08;;;;;;;20.25;14.90;;;;;;;;;;5020711;28;20040;-74
2023/10/18 09:13:33;;;;;;;16.00;14.10;;;;;;;;;;5040234;28;20108;-74
2023/10/18 09:18:24;;;;;;;15.75;13.18;;;;;;;;;;5034135;28;20044;-74
2023/10/18 09:20:51;;;;;;;16.55;14.73;;;;;;;;;;5057367;28;20418;-74
2023/10/18 09:23:21;;;;;;;19.00;15.18;;;;;;;;;;5054006;28;20111;-74
2023/10/18 09:25:48;;;;;;;16.23;14.48;;;;;;;;;;5042720;28;20506;-75
2023/10/18 09:28:42;;;;;;;18.50;15.10;;;;;;;;;;5042137;28;20054;-76
2023/10/18 09:31:12;;;;;;;18.27;14.32;;;;;;;;;;5055137;28;20142;-74
2023/10/18 09:33:48;;;;;;;15.75;14.15;;;;;;;;;;5059133;28;20033;-76
2023/10/18 09:36:19;;;;;;;15.82;14.23;;;;;;;;;;5062900;28;20040;-76
2023/10/18 09:38:48;;;;;;;15.18;13.65;;;;;;;;;;5065284;28;20533;-75
2023/10/18 09:41:15;;;;;;;15.32;13.82;;;;;;;;;;5064810;28;20043;-74
2023/10/18 09:43:44;;;;;;;16.40;14.75;;;;;;;;;;5062805;28;20124;-73
2023/10/18 09:46:13;;;;;;;14.60;13.23;;;;;;;;;;5052314;28;20040;-75
2023/10/18 09:48:43;;;;;;;14.35;12.68;;;;;;;;;;5062177;28;20492;-74
2023/10/18 09:51:15;;;;;;;13.35;12.00;;;;;;;;;;5060687;28;20040;-77
2023/10/18 09:54:07;;;;;;;13.30;12.00;;;;;;;;;;5038610;28;20050;-75
2023/10/18 09:57:00;;;;;;;13.45;11.57;;;;;;;;;;5065404;28;20036;-78
2023/10/18 09:59:37;;;;;;;13.93;12.35;;;;;;;;;;5064686;28;20032;-77
2023/10/18 10:02:08;;;;;;;12.60;11.43;;;;;;;;;;5049769;28;20124;-75
2023/10/18 10:04:38;;;;;;;13.07;11.88;;;;;;;;;;5057242;28;20024;-75
2023/10/18 10:09:50;;;;;;;12.27;11.18;;;;;;;;;;5054494;28;20044;-75
2023/10/18 10:12:17;;;;;;;13.07;10.00;;;;;;;;;;5064844;28;20029;-75
2023/10/18 10:14:43;;;;;;;11.43;10.43;;;;;;;;;;5048418;28;20059;-75
2023/10/18 10:17:15;;;;;;;11.43;10.45;;;;;;;;;;5064820;28;20036;-75
2023/10/18 10:20:10;;;;;;;12.10;11.00;;;;;;;;;;5063176;28;20038;-75
2023/10/18 10:22:38;;;;;;;11.52;10.40;;;;;;;;;;5059031;28;20048;-75
2023/10/18 10:25:04;;;;;;;10.48;9.43;;;;;;;;;;5045468;28;20158;-75
2023/10/18 10:32:52;;;;;;;11.27;10.20;;;;;;;;;;5043375;28;20040;-76
2023/10/18 10:35:20;;;;;;;;;;;;;;;;;;5067123;28;20078;-76
2023/10/18 10:37:53;;;;;;;11.10;10.23;;;;;;;;;;5067727;28;19919;-75
2023/10/18 10:43:01;;;;;;;10.95;9.95;;;;;;;;;;5065979;28;20024;-76
2023/10/18 10:45:38;;;;;;;11.95;10.80;;;;;;;;;;5064375;28;20044;-76
2023/10/18 10:48:17;;;;;;;11.75;10.68;;;;;;;;;;5064976;28;20115;-76
2023/10/18 10:50:50;;;;;;;10.38;9.50;;;;;;;;;;5066696;28;20032;-75
2023/10/18 10:53:32;;;;;;;11.63;10.65;;;;;;;;;;5068551;28;20063;-75
2023/10/18 10:56:29;;;;;;;11.75;10.73;;;;;;;;;;5047911;28;20044;-76
2023/10/18 10:59:03;;;;;;;11.25;10.35;;;;;;;;;;5041155;28;20707;-75
2023/10/18 11:04:28;;;;;;;11.10;10.20;;;;;;;;;;5066339;28;20087;-75
2023/10/18 11:07:21;;;;;;;10.82;9.90;;;;;;;;;;5066560;28;20028;-75
2023/10/18 11:10:06;;;;;;;11.05;9.93;;;;;;;;;;5005825;28;20073;-74
2023/10/18 11:12:47;;;;;;;10.80;9.82;;;;;;;;;;4987376;28;20534;-75
2023/10/18 11:15:27;;;;;;;9.90;9.20;;;;;;;;;;5013736;28;20109;-77
2023/10/18 11:18:15;;;;;;;9.25;8.45;;;;;;;;;;5009560;28;20048;-76
2023/10/18 11:21:05;;;;;;;9.25;8.52;;;;;;;;;;5011239;28;20083;-78
2023/10/18 11:23:33;;;;;;;9.02;8.23;;;;;;;;;;5012297;28;20042;-75
2023/10/18 11:26:01;;;;;;;10.97;9.47;;;;;;;;;;4992769;28;20037;-74
2023/10/18 11:28:29;;;;;;;9.90;9.10;;;;;;;;;;5000900;28;20292;-72
2023/10/18 11:31:00;;;;;;;10.68;9.60;;;;;;;;;;4999834;28;20052;-71
2023/10/18 11:33:46;;;;;;;10.80;9.30;;;;;;;;;;4994393;28;20042;-73
2023/10/18 11:36:18;;;;;;;10.20;9.40;;;;;;;;;;4998622;28;20125;-75
2023/10/18 11:39:07;;;;;;;9.85;9.15;;;;;;;;;;5001020;28;20117;-75
2023/10/18 11:41:35;;;;;;;10.13;9.32;;;;;;;;;;4996130;28;20796;-72
2023/10/18 11:44:08;;;;;;;10.25;9.45;;;;;;;;;;4990339;28;20050;-72
2023/10/18 11:46:47;;;;;;;10.60;9.75;;;;;;;;;;5014199;28;20051;-72
2023/10/18 11:49:20;;;;;;;10.10;9.35;;;;;;;;;;5040813;28;20044;-73
2023/10/18 11:51:51;;;;;;;9.55;8.85;;;;;;;;;;5060796;28;20036;-75
2023/10/18 11:58:09;;;;;;;10.30;9.50;;;;;;;;;;4964409;28;20035;-73
2023/10/18 12:00:35;;;;;;;10.88;9.80;;;;;;;;;;4961902;28;20595;-73
2023/10/18 12:03:03;;;;;;;10.10;9.30;;;;;;;;;;4961949;28;20141;-74
2023/10/18 12:05:29;;;;;;;10.00;9.23;;;;;;;;;;4971189;28;20038;-73
2023/10/18 12:08:01;;;;;;;10.27;9.48;;;;;;;;;;4976525;28;20046;-73
2023/10/18 12:10:34;;;;;;;10.15;9.35;;;;;;;;;;4966540;28;20043;-73
2023/10/18 12:13:06;;;;;;;9.35;8.55;;;;;;;;;;4962645;28;20050;-72
2023/10/18 12:15:33;;;;;;;10.00;9.30;;;;;;;;;;4968647;28;20054;-72
2023/10/18 12:18:03;;;;;;;9.60;8.65;;;;;;;;;;4964294;28;20094;-74
2023/10/18 12:20:37;;;;;;;9.60;8.82;;;;;;;;;;4948268;28;20046;-73
2023/10/18 12:23:21;;;;;;;10.52;9.52;;;;;;;;;;4946338;28;20043;-73
2023/10/18 12:25:48;;;;;;;9.70;8.88;;;;;;;;;;4962373;28;20173;-74
2023/10/18 12:28:27;;;;;;;9.25;8.55;;;;;;;;;;4960917;28;20058;-73
2023/10/18 12:30:55;;;;;;;;;;;;;;;;;;4960928;28;20078;-72
2023/10/18 12:33:26;;;;;;;9.43;8.65;;;;;;;;;;4983260;28;19920;-74
2023/10/18 12:35:56;;;;;;;9.88;8.98;;;;;;;;;;5034987;28;20437;-73
2023/10/18 12:38:38;;;;;;;9.73;8.98;;;;;;;;;;5057431;28;20037;-73
2023/10/18 12:41:18;;;;;;;9.63;8.82;;;;;;;;;;5052702;28;20044;-73
2023/10/18 12:43:47;;;;;;;9.80;8.85;;;;;;;;;;5055021;28;20101;-72
2023/10/18 12:46:17;;;;;;;9.45;8.40;;;;;;;;;;5056956;28;20461;-72
2023/10/18 12:48:43;;;;;;;10.20;9.07;;;;;;;;;;5054077;28;20111;-73
2023/10/18 12:51:12;;;;;;;9.90;9.00;;;;;;;;;;5060151;28;20075;-73
2023/10/18 12:53:41;;;;;;;9.40;8.57;;;;;;;;;;5043261;28;20044;-74
2023/10/18 12:59:38;;;;;;;9.30;8.60;;;;;;;;;;5066627;28;20032;-72
2023/10/18 13:01:46;;;;;;;9.43;8.63;;;;;;;;;;5050081;28;20498;-74
2023/10/18 13:04:18;;;;;;;9.13;8.48;;;;;;;;;;5050665;28;20041;-73
2023/10/18 13:06:47;;;;;;;10.00;9.10;;;;;;;;;;5066369;28;20085;-73
2023/10/18 13:14:24;;;;;;;10.23;9.32;;;;;;;;;;5064366;28;20603;-74
2023/10/18 13:16:51;;;;;;;9.90;9.10;;;;;;;;;;5064818;28;20040;-74
2023/10/18 13:19:19;;;;;;;10.13;9.23;;;;;;;;;;5060459;28;20037;-74
2023/10/18 13:21:47;;;;;;;10.55;9.63;;;;;;;;;;5060482;28;20482;-74
2023/10/18 13:24:17;;;;;;;10.70;9.68;;;;;;;;;;5059752;28;20054;-73
2023/10/18 13:26:47;;;;;;;10.60;9.70;;;;;;;;;;5055775;28;20028;-73
2023/10/18 13:29:29;;;;;;;10.70;9.80;;;;;;;;;;5062349;28;20059;-74
2023/10/18 13:31:59;;;;;;;10.90;10.00;;;;;;;;;;5063026;28;20072;-73
2023/10/18 13:34:32;;;;;;;10.07;9.07;;;;;;;;;;5062261;28;20067;-73
2023/10/18 13:36:59;;;;;;;10.80;9.90;;;;;;;;;;5063077;28;20098;-74
2023/10/18 13:39:27;;;;;;;11.23;10.27;;;;;;;;;;5061817;28;20056;-74
2023/10/18 13:41:53;;;;;;;10.00;9.10;;;;;;;;;;5063960;28;20092;-74
2023/10/18 13:44:21;;;;;;;11.43;10.43;;;;;;;;;;5059993;28;20139;-74
2023/10/18 13:46:56;;;;;;;12.30;11.20;;;;;;;;;;5063613;28;20045;-74
2023/10/18 13:49:25;;;;;;;10.48;9.52;;;;;;;;;;5062396;28;20033;-74
2023/10/18 13:51:52;;;;;;;11.35;10.45;;;;;;;;;;5071145;28;20045;-74
2023/10/18 13:54:18;;;;;;;10.88;9.88;;;;;;;;;;5060894;28;20460;-74
2023/10/18 13:56:44;;;;;;;11.88;10.82;;;;;;;;;;5063024;28;20071;-74
2023/10/18 13:59:13;;;;;;;13.48;12.13;;;;;;;;;;5062348;28;20064;-74
2023/10/18 14:01:42;;;;;;;13.63;11.98;;;;;;;;;;5061972;28;20032;-74
2023/10/18 14:04:08;;;;;;;10.10;9.27;;;;;;;;;;5061613;28;20861;-74
2023/10/18 14:06:36;;;;;;;10.77;9.98;;;;;;;;;;5061989;28;20044;-74
2023/10/18 14:09:10;;;;;;;12.52;11.32;;;;;;;;;;5064605;28;20070;-74
2023/10/18 14:11:39;;;;;;;12.30;11.13;;;;;;;;;;5054887;28;20068;-74
2023/10/18 14:14:07;;;;;;;15.27;13.88;;;;;;;;;;5046520;28;20056;-74
2023/10/18 14:16:34;;;;;;;14.07;12.82;;;;;;;;;;5067031;28;20036;-73
2023/10/18 14:19:01;;;;;;;15.32;11.40;;;;;;;;;;5045175;28;20036;-73
2023/10/18 14:21:29;;;;;;;15.65;14.05;;;;;;;;;;5061615;28;20578;-75
2023/10/18 14:24:00;;;;;;;13.85;12.50;;;;;;;;;;5065598;28;20057;-73
2023/10/18 14:26:27;;;;;;;13.43;11.75;;;;;;;;;;5065684;28;20461;-73
2023/10/18 14:28:55;;;;;;;13.48;12.07;;;;;;;;;;5060499;28;20040;-73
2023/10/18 14:31:21;;;;;;;12.90;11.63;;;;;;;;;;5062222;28;20036;-73
2023/10/18 14:33:49;;;;;;;13.13;11.98;;;;;;;;;;5064933;28;20576;-74
2023/10/18 14:36:18;;;;;;;12.20;11.10;;;;;;;;;;5054662;28;20094;-73
2023/10/18 14:38:45;;;;;;;13.93;12.73;;;;;;;;;;5045300;28;20060;-73
2023/10/18 14:41:17;;;;;;;18.92;17.05;;;;;;;;;;5059689;28;20041;-73
2023/10/18 14:43:43;;;;;;;13.20;11.90;;;;;;;;;;5044943;28;20036;-74
2023/10/18 14:46:10;;;;;;;13.25;11.82;;;;;;;;;;5045547;28;20040;-73
2023/10/18 14:48:43;;;;;;;13.52;12.13;;;;;;;;;;5064485;28;20537;-73
2023/10/18 14:51:09;;;;;;;11.23;10.15;;;;;;;;;;5063681;28;20043;-74
2023/10/18 14:53:36;;;;;;;14.18;11.55;;;;;;;;;;5062624;28;20107;-74
2023/10/18 14:56:12;;;;;;;17.25;12.98;;;;;;;;;;5046316;28;20040;-74
2023/10/18 14:58:43;;;;;;;16.17;14.77;;;;;;;;;;5044510;28;20108;-72
2023/10/18 15:01:12;;;;;;;17.20;15.70;;;;;;;;;;5043745;28;20114;-74
2023/10/18 15:03:48;;;;;;;18.08;16.55;;;;;;;;;;5051744;28;20040;-74
2023/10/18 15:06:16;;;;;;;16.58;15.20;;;;;;;;;;5038669;28;20036;-72
2023/10/18 15:08:43;;;;;;;17.95;16.33;;;;;;;;;;5065131;28;20040;-73
2023/10/18 15:11:14;;;;;;;17.25;15.75;;;;;;;;;;5042384;28;20048;-76
2023/10/18 15:13:47;;;;;;;16.90;15.20;;;;;;;;;;5045141;28;20043;-75
2023/10/18 15:16:17;;;;;;;16.90;15.45;;;;;;;;;;5042518;28;20024;-74
2023/10/18 15:18:47;;;;;;;19.30;17.52;;;;;;;;;;5038617;28;20113;-73
2023/10/18 15:21:15;;;;;;;14.00;12.88;;;;;;;;;;5059155;28;20045;-73
2023/10/18 15:23:43;;;;;;;17.67;16.05;;;;;;;;;;5046268;28;20028;-72
2023/10/18 15:26:10;;;;;;;17.87;16.27;;;;;;;;;;5028658;28;20036;-72
2023/10/18 15:28:36;;;;;;;16.45;15.02;;;;;;;;;;5063659;28;20313;-73
2023/10/18 15:31:14;;;;;;;17.42;15.65;;;;;;;;;;5015388;28;20033;-76
2023/10/18 15:33:42;;;;;;;18.20;16.15;;;;;;;;;;5028013;28;20036;-72
2023/10/18 15:36:21;;;;;;;19.10;16.40;;;;;;;;;;5055993;28;20032;-70
2023/10/18 15:38:54;;;;;;;20.75;18.63;;;;;;;;;;5059168;28;20111;-69
2023/10/18 15:41:24;;;;;;;17.30;15.88;;;;;;;;;;5041506;28;20111;-72
2023/10/18 15:43:56;;;;;;;16.83;15.38;;;;;;;;;;5063884;28;20650;-72
2023/10/18 15:46:28;;;;;;;22.73;20.42;;;;;;;;;;5040145;28;20712;-72
2023/10/18 15:48:57;;;;;;;22.35;20.40;;;;;;;;;;5058282;28;20604;-72
2023/10/18 15:51:23;;;;;;;17.73;16.40;;;;;;;;;;5059287;28;20040;-72
2023/10/18 15:53:53;;;;;;;20.05;18.10;;;;;;;;;;5044713;28;20117;-71
2023/10/18 15:56:21;;;;;;;22.48;20.38;;;;;;;;;;5048977;28;20032;-70
2023/10/18 15:58:46;;;;;;;19.13;17.50;;;;;;;;;;5054917;28;20028;-69
2023/10/18 16:01:16;;;;;;;18.58;17.00;;;;;;;;;;5030250;28;20063;-71
2023/10/18 16:03:50;;;;;;;19.55;17.75;;;;;;;;;;5058850;28;20037;-72
2023/10/18 16:06:17;;;;;;;21.00;18.88;;;;;;;;;;5053573;28;20418;-71
2023/10/18 16:08:46;;;;;;;20.00;18.02;;;;;;;;;;5064493;28;20085;-71
2023/10/18 16:11:24;;;;;;;23.45;20.88;;;;;;;;;;5015436;28;20044;-71